createdAt,value
2017-08-26T00:01:05.518Z,100402.52
2017-08-26T00:03:34.571Z,100395.73
2017-08-26T00:06:04.534Z,100400.02
2017-08-26T00:08:33.587Z,100406.31
2017-08-26T00:11:02.679Z,100406.52
2017-08-26T00:13:31.724Z,100412.37
2017-08-26T00:16:01.071Z,100411.83
2017-08-26T00:18:30.138Z,100407.49
2017-08-26T00:20:59.196Z,100402.95
2017-08-26T00:23:28.268Z,100404.88
2017-08-26T00:25:57.320Z,100408.56
2017-08-26T00:28:26.442Z,100412.89
2017-08-26T00:30:55.481Z,100418.21
2017-08-26T00:33:24.507Z,100423.92
2017-08-26T00:35:53.628Z,100411.53
2017-08-26T00:38:22.687Z,100417.11
2017-08-26T00:40:51.755Z,100426.03
2017-08-26T00:43:20.826Z,100420.77
2017-08-26T00:45:49.891Z,100429.26
2017-08-26T00:48:18.951Z,100424.33
2017-08-26T00:50:48.036Z,100413.87
2017-08-26T00:53:17.106Z,100413.77
2017-08-26T00:55:46.176Z,100411.79
2017-08-26T00:58:15.217Z,100411.41
2017-08-26T01:00:44.296Z,100399.63
2017-08-26T01:03:13.349Z,100399.42
2017-08-26T01:05:42.876Z,100389.71
2017-08-26T01:08:11.904Z,100384.58
2017-08-26T01:10:40.976Z,100386.48
2017-08-26T01:13:10.010Z,100388.27
2017-08-26T01:15:39.063Z,100385.49
2017-08-26T01:18:08.156Z,100391.78
2017-08-26T01:20:37.185Z,100388.14
2017-08-26T01:23:06.247Z,100383.15
2017-08-26T01:25:35.308Z,100376.05
2017-08-26T01:28:04.423Z,100368.16
2017-08-26T01:30:33.534Z,100366.73
2017-08-26T01:33:02.559Z,100367.30
2017-08-26T01:35:31.641Z,100375.91
2017-08-26T01:38:00.724Z,100365.66
2017-08-26T01:40:29.761Z,100371.92
2017-08-26T01:42:58.839Z,100366.20
2017-08-26T01:45:27.876Z,100366.28
2017-08-26T01:47:57.053Z,100370.59
2017-08-26T01:50:26.157Z,100362.71
2017-08-26T01:52:55.205Z,100355.97
2017-08-26T01:55:24.284Z,100358.92
2017-08-26T01:57:53.356Z,100356.22
2017-08-26T02:00:22.625Z,100350.70
2017-08-26T02:02:51.744Z,100356.34
2017-08-26T02:05:20.864Z,100360.22
2017-08-26T02:07:49.923Z,100349.79
2017-08-26T02:10:19.043Z,100353.53
2017-08-26T02:12:48.107Z,100353.13
2017-08-26T02:15:17.142Z,100347.47
2017-08-26T02:17:46.973Z,100347.23
2017-08-26T02:20:16.045Z,100348.80
2017-08-26T02:22:45.286Z,100352.35
2017-08-26T02:25:14.368Z,100353.33
2017-08-26T02:27:43.455Z,100362.72
2017-08-26T02:30:12.543Z,100368.02
2017-08-26T02:32:41.585Z,100368.41
2017-08-26T02:35:10.664Z,100365.86
2017-08-26T02:37:39.720Z,100374.95
2017-08-26T02:40:09.370Z,100378.27
2017-08-26T02:42:38.434Z,100377.67
2017-08-26T02:45:07.597Z,100368.02
2017-08-26T02:47:36.684Z,100368.38
2017-08-26T02:50:05.747Z,100369.77
2017-08-26T02:52:34.805Z,100374.89
2017-08-26T02:55:03.880Z,100373.91
2017-08-26T02:57:32.954Z,100371.35
2017-08-26T03:00:02.014Z,100365.45
2017-08-26T03:02:31.243Z,100364.19
2017-08-26T03:05:00.285Z,100364.92
2017-08-26T03:07:29.315Z,100377.06
2017-08-26T03:09:58.691Z,100372.84
2017-08-26T03:12:27.752Z,100382.71
2017-08-26T03:14:56.825Z,100380.13
2017-08-26T03:17:25.870Z,100377.97
2017-08-26T03:19:54.964Z,100379.66
2017-08-26T03:22:24.000Z,100381.45
2017-08-26T03:24:53.042Z,100374.17
2017-08-26T03:27:22.127Z,100370.69
2017-08-26T03:29:51.184Z,100369.71
2017-08-26T03:32:20.243Z,100374.30
2017-08-26T03:34:49.327Z,100370.98
2017-08-26T03:37:18.390Z,100367.84
2017-08-26T03:39:47.505Z,100365.58
2017-08-26T03:42:16.575Z,100355.99
2017-08-26T03:44:45.631Z,100350.88
2017-08-26T03:47:14.659Z,100347.79
2017-08-26T03:49:43.732Z,100341.11
2017-08-26T03:52:12.804Z,100335.02
2017-08-26T03:54:41.851Z,100333.30
2017-08-26T03:57:10.921Z,100325.84
2017-08-26T03:59:39.969Z,100323.72
2017-08-26T04:02:09.044Z,100324.91
2017-08-26T04:04:38.244Z,100331.06
2017-08-26T04:07:07.450Z,100329.89
2017-08-26T04:09:36.480Z,100329.30
2017-08-26T04:12:05.730Z,100333.59
2017-08-26T04:14:34.764Z,100340.00
2017-08-26T04:17:03.871Z,100343.22
2017-08-26T04:19:32.907Z,100344.97
2017-08-26T04:22:01.963Z,100335.13
2017-08-26T04:24:31.031Z,100332.39
2017-08-26T04:27:00.087Z,100338.36
2017-08-26T04:29:29.141Z,100336.25
2017-08-26T04:31:58.232Z,100340.41
2017-08-26T04:34:27.297Z,100347.34
2017-08-26T04:36:56.408Z,100344.61
2017-08-26T04:39:25.487Z,100346.44
2017-08-26T04:41:54.544Z,100351.42
2017-08-26T04:44:23.601Z,100352.07
2017-08-26T04:46:52.671Z,100338.70
2017-08-26T04:49:21.740Z,100346.03
2017-08-26T04:51:50.824Z,100341.12
2017-08-26T04:54:19.888Z,100343.48
2017-08-26T04:56:48.933Z,100342.94
2017-08-26T04:59:18.036Z,100338.86
2017-08-26T05:01:47.081Z,100345.61
2017-08-26T05:04:16.135Z,100348.33
2017-08-26T05:06:45.214Z,100347.73
2017-08-26T05:09:14.287Z,100348.38
2017-08-26T05:11:43.364Z,100344.05
2017-08-26T05:14:12.789Z,100347.26
2017-08-26T05:16:41.864Z,100342.00
2017-08-26T05:19:11.149Z,100349.70
2017-08-26T05:21:40.246Z,100344.58
2017-08-26T05:24:09.331Z,100348.31
2017-08-26T05:26:38.373Z,100354.43
2017-08-26T05:29:07.424Z,100350.29
2017-08-26T05:31:36.484Z,100340.05
2017-08-26T05:34:05.739Z,100334.77
2017-08-26T05:36:34.856Z,100333.59
2017-08-26T05:39:03.978Z,100335.41
2017-08-26T05:41:33.049Z,100331.30
2017-08-26T05:44:02.503Z,100327.95
2017-08-26T05:46:31.529Z,100337.58
2017-08-26T05:49:00.591Z,100334.86
2017-08-26T05:51:29.652Z,100332.53
2017-08-26T05:53:58.697Z,100332.77
2017-08-26T05:56:27.763Z,100336.72
2017-08-26T05:58:56.832Z,100337.11
2017-08-26T06:01:25.936Z,100340.89
2017-08-26T06:03:54.994Z,100333.83
2017-08-26T06:06:24.062Z,100345.47
2017-08-26T06:08:53.463Z,100343.14
2017-08-26T06:11:22.512Z,100333.50
2017-08-26T06:13:51.651Z,100339.45
2017-08-26T06:16:20.699Z,100340.87
2017-08-26T06:18:49.793Z,100347.83
2017-08-26T06:21:18.852Z,100340.36
2017-08-26T06:23:47.907Z,100337.81
2017-08-26T06:26:17.003Z,100333.27
2017-08-26T06:28:46.056Z,100337.41
2017-08-26T06:31:15.115Z,100335.84
2017-08-26T06:33:44.211Z,100338.00
2017-08-26T06:36:13.302Z,100337.44
2017-08-26T06:38:42.355Z,100340.02
2017-08-26T06:41:11.419Z,100339.25
2017-08-26T06:43:40.492Z,100344.42
2017-08-26T06:46:09.588Z,100336.33
2017-08-26T06:48:38.949Z,100330.42
2017-08-26T06:51:08.031Z,100338.70
2017-08-26T06:53:37.107Z,100338.32
2017-08-26T06:56:06.196Z,100327.09
2017-08-26T06:58:35.272Z,100331.05
2017-08-26T07:01:04.363Z,100331.63
2017-08-26T07:03:33.410Z,100330.27
2017-08-26T07:06:02.464Z,100323.92
2017-08-26T07:08:31.550Z,100323.91
2017-08-26T07:11:00.590Z,100314.97
2017-08-26T07:13:29.638Z,100313.36
2017-08-26T07:15:58.695Z,100312.38
2017-08-26T07:18:27.836Z,100313.75
2017-08-26T07:20:57.096Z,100313.31
2017-08-26T07:23:26.140Z,100315.72
2017-08-26T07:25:55.196Z,100319.22
2017-08-26T07:28:24.251Z,100315.97
2017-08-26T07:30:53.319Z,100311.98
2017-08-26T07:33:22.361Z,100308.59
2017-08-26T07:35:51.448Z,100307.70
2017-08-26T07:38:20.538Z,100309.42
2017-08-26T07:40:49.646Z,100320.65
2017-08-26T07:43:18.697Z,100324.91
2017-08-26T07:45:47.768Z,100329.39
2017-08-26T07:48:16.815Z,100321.66
2017-08-26T07:50:45.876Z,100330.54
2017-08-26T07:53:14.943Z,100331.74
2017-08-26T07:55:44.001Z,100326.80
2017-08-26T07:58:13.049Z,100330.02
2017-08-26T08:00:42.108Z,100328.27
2017-08-26T08:03:11.168Z,100334.40
2017-08-26T08:05:40.241Z,100332.95
2017-08-26T08:08:09.320Z,100331.74
2017-08-26T08:10:38.369Z,100332.05
2017-08-26T08:13:07.449Z,100333.95
2017-08-26T08:15:36.476Z,100329.57
2017-08-26T08:18:05.552Z,100336.46
2017-08-26T08:20:34.594Z,100336.95
2017-08-26T08:23:03.707Z,100334.08
2017-08-26T08:25:33.772Z,100328.23
2017-08-26T08:28:02.872Z,100330.97
2017-08-26T08:30:32.004Z,100332.67
2017-08-26T08:33:01.032Z,100334.53
2017-08-26T08:35:30.094Z,100336.50
2017-08-26T08:37:59.152Z,100341.24
2017-08-26T08:40:28.193Z,100342.05
2017-08-26T08:42:57.253Z,100342.31
2017-08-26T08:45:26.301Z,100340.41
2017-08-26T08:47:56.135Z,100334.09
2017-08-26T08:50:25.205Z,100330.08
2017-08-26T08:52:54.240Z,100333.67
2017-08-26T08:55:23.400Z,100331.49
2017-08-26T08:57:52.461Z,100327.09
2017-08-26T09:00:21.556Z,100330.02
2017-08-26T09:02:50.734Z,100338.67
2017-08-26T09:05:19.793Z,100336.14
2017-08-26T09:07:48.847Z,100333.80
2017-08-26T09:10:17.919Z,100337.81
2017-08-26T09:12:47.151Z,100335.30
2017-08-26T09:15:16.220Z,100340.11
2017-08-26T09:17:45.312Z,100337.38
2017-08-26T09:20:14.384Z,100336.54
2017-08-26T09:22:43.448Z,100343.41
2017-08-26T09:25:12.508Z,100339.44
2017-08-26T09:27:41.576Z,100335.75
2017-08-26T09:30:10.644Z,100345.80
2017-08-26T09:32:39.709Z,100342.55
2017-08-26T09:35:08.780Z,100343.83
2017-08-26T09:37:37.846Z,100335.66
2017-08-26T09:40:06.917Z,100334.64
2017-08-26T09:42:36.024Z,100333.58
2017-08-26T09:45:05.083Z,100334.94
2017-08-26T09:47:34.147Z,100330.77
2017-08-26T09:50:03.219Z,100330.05
2017-08-26T09:52:32.641Z,100327.64
2017-08-26T09:55:01.865Z,100333.73
2017-08-26T09:57:30.908Z,100337.67
2017-08-26T09:59:59.956Z,100340.17
2017-08-26T10:02:29.040Z,100342.45
2017-08-26T10:04:59.013Z,100347.61
2017-08-26T10:07:28.076Z,100340.26
2017-08-26T10:09:57.120Z,100342.78
2017-08-26T10:12:26.181Z,100342.83
2017-08-26T10:14:55.253Z,100339.79
2017-08-26T10:17:24.292Z,100339.97
2017-08-26T10:19:53.439Z,100343.19
2017-08-26T10:22:24.483Z,100345.65
2017-08-26T10:24:55.159Z,100346.77
2017-08-26T10:27:24.234Z,100345.02
2017-08-26T10:29:53.362Z,100339.63
2017-08-26T10:32:22.441Z,100339.16
2017-08-26T10:34:51.502Z,100341.66
2017-08-26T10:37:20.565Z,100342.30
2017-08-26T10:39:49.620Z,100342.30
2017-08-26T10:42:18.669Z,100343.73
2017-08-26T10:44:47.746Z,100335.35
2017-08-26T10:47:16.803Z,100337.12
2017-08-26T10:49:45.870Z,100339.40
2017-08-26T10:52:14.933Z,100332.33
2017-08-26T10:54:44.005Z,100336.73
2017-08-26T10:57:13.125Z,100337.03
2017-08-26T10:59:42.233Z,100338.57
2017-08-26T11:02:11.272Z,100332.25
2017-08-26T11:04:40.337Z,100330.47
2017-08-26T11:07:09.404Z,100335.90
2017-08-26T11:09:38.495Z,100330.23
2017-08-26T11:12:07.560Z,100328.27
2017-08-26T11:14:36.613Z,100322.67
2017-08-26T11:17:06.040Z,100319.88
2017-08-26T11:19:35.871Z,100323.58
2017-08-26T11:22:04.934Z,100317.02
2017-08-26T11:24:34.006Z,100322.09
2017-08-26T11:27:03.181Z,100320.28
2017-08-26T11:29:32.555Z,100315.55
2017-08-26T11:32:01.634Z,100313.48
2017-08-26T11:34:30.683Z,100316.05
2017-08-26T11:36:59.785Z,100318.43
2017-08-26T11:39:28.836Z,100315.75
2017-08-26T11:41:57.913Z,100315.01
2017-08-26T11:44:27.012Z,100311.83
2017-08-26T11:46:56.077Z,100316.54
2017-08-26T11:49:25.189Z,100318.45
2017-08-26T11:51:54.235Z,100321.61
2017-08-26T11:54:23.481Z,100313.23
2017-08-26T11:56:52.555Z,100309.89
2017-08-26T11:59:21.650Z,100315.70
2017-08-26T12:01:50.751Z,100314.11
2017-08-26T12:04:19.818Z,100307.54
2017-08-26T12:06:48.913Z,100308.31
2017-08-26T12:09:17.992Z,100311.48
2017-08-26T12:11:47.104Z,100310.70
2017-08-26T12:14:16.173Z,100303.91
2017-08-26T12:16:45.213Z,100305.48
2017-08-26T12:19:14.281Z,100303.40
2017-08-26T12:21:43.383Z,100302.22
2017-08-26T12:24:12.465Z,100303.13
2017-08-26T12:26:41.519Z,100304.31
2017-08-26T12:29:10.587Z,100308.02
2017-08-26T12:31:39.710Z,100307.14
2017-08-26T12:34:08.790Z,100306.73
2017-08-26T12:36:37.839Z,100311.66
2017-08-26T12:39:06.913Z,100309.92
2017-08-26T12:41:35.990Z,100308.08
2017-08-26T12:44:05.033Z,100304.92
2017-08-26T12:46:34.100Z,100309.64
2017-08-26T12:49:03.454Z,100317.93
2017-08-26T12:51:32.508Z,100308.63
2017-08-26T12:54:01.588Z,100314.37
2017-08-26T12:56:30.668Z,100316.27
2017-08-26T12:58:59.747Z,100315.52
2017-08-26T13:01:28.819Z,100317.86
2017-08-26T13:03:57.898Z,100322.21
2017-08-26T13:06:26.975Z,100317.44
2017-08-26T13:08:56.018Z,100318.47
2017-08-26T13:11:25.080Z,100316.68
2017-08-26T13:13:54.142Z,100321.72
2017-08-26T13:16:23.219Z,100316.09
2017-08-26T13:18:52.282Z,100321.54
2017-08-26T13:21:21.354Z,100313.72
2017-08-26T13:23:50.455Z,100322.07
2017-08-26T13:26:19.546Z,100319.56
2017-08-26T13:28:49.405Z,100322.95
2017-08-26T13:31:18.493Z,100314.14
2017-08-26T13:33:47.544Z,100314.80
2017-08-26T13:36:16.604Z,100312.00
2017-08-26T13:38:45.672Z,100317.59
2017-08-26T13:41:14.743Z,100315.72
2017-08-26T13:43:43.795Z,100314.63
2017-08-26T13:46:12.898Z,100314.63
2017-08-26T13:48:41.956Z,100317.15
2017-08-26T13:51:11.046Z,100314.58
2017-08-26T13:53:40.088Z,100317.98
2017-08-26T13:56:09.373Z,100327.59
2017-08-26T13:58:38.413Z,100312.45
2017-08-26T14:01:07.489Z,100317.05
2017-08-26T14:03:36.564Z,100313.93
2017-08-26T14:06:05.640Z,100313.09
2017-08-26T14:08:34.729Z,100305.83
2017-08-26T14:11:03.783Z,100308.27
2017-08-26T14:13:33.122Z,100308.56
2017-08-26T14:16:02.204Z,100318.84
2017-08-26T14:18:31.268Z,100313.97
2017-08-26T14:21:00.336Z,100317.48
2017-08-26T14:23:30.189Z,100321.45
2017-08-26T14:25:59.249Z,100306.44
2017-08-26T14:28:29.181Z,100314.67
2017-08-26T14:30:58.254Z,100316.50
2017-08-26T14:33:28.125Z,100321.50
2017-08-26T14:35:57.571Z,100323.57
2017-08-26T14:38:26.763Z,100320.45
2017-08-26T14:40:56.585Z,100320.94
2017-08-26T14:43:25.671Z,100316.55
2017-08-26T14:45:54.739Z,100324.47
2017-08-26T14:48:23.831Z,100321.94
2017-08-26T14:50:52.928Z,100326.08
2017-08-26T14:53:22.039Z,100325.64
2017-08-26T14:55:51.320Z,100315.58
2017-08-26T14:58:20.408Z,100315.05
2017-08-26T15:00:49.478Z,100311.70
2017-08-26T15:03:18.558Z,100307.83
2017-08-26T15:05:48.393Z,100310.12
2017-08-26T15:08:17.480Z,100309.03
2017-08-26T15:10:46.612Z,100312.83
2017-08-26T15:13:15.686Z,100306.98
2017-08-26T15:15:44.924Z,100304.30
2017-08-26T15:18:14.255Z,100310.39
2017-08-26T15:20:43.343Z,100305.45
2017-08-26T15:23:13.164Z,100300.71
2017-08-26T15:25:42.240Z,100303.30
2017-08-26T15:28:11.394Z,100300.78
2017-08-26T15:30:40.468Z,100308.56
2017-08-26T15:33:09.548Z,100308.48
2017-08-26T15:35:38.613Z,100312.84
2017-08-26T15:38:07.717Z,100313.88
2017-08-26T15:40:36.751Z,100306.75
2017-08-26T15:43:05.832Z,100307.23
2017-08-26T15:45:34.889Z,100304.39
2017-08-26T15:48:03.965Z,100309.39
2017-08-26T15:50:33.028Z,100308.16
2017-08-26T15:53:02.110Z,100307.94
2017-08-26T15:55:31.200Z,100305.20
2017-08-26T15:58:01.045Z,100301.53
2017-08-26T16:00:30.105Z,100303.55
2017-08-26T16:02:59.972Z,100307.16
2017-08-26T16:05:29.038Z,100306.61
2017-08-26T16:07:58.148Z,100304.78
2017-08-26T16:10:27.179Z,100300.34
2017-08-26T16:12:56.245Z,100297.38
2017-08-26T16:15:25.311Z,100306.37
2017-08-26T16:17:54.380Z,100301.59
2017-08-26T16:20:24.211Z,100301.30
2017-08-26T16:22:53.255Z,100304.66
2017-08-26T16:25:22.425Z,100303.55
2017-08-26T16:27:51.504Z,100303.19
2017-08-26T16:30:20.605Z,100305.05
2017-08-26T16:32:49.675Z,100302.05
2017-08-26T16:35:18.802Z,100306.11
2017-08-26T16:37:47.863Z,100305.22
2017-08-26T16:40:16.961Z,100301.94
2017-08-26T16:42:46.051Z,100307.22
2017-08-26T16:45:15.565Z,100311.30
2017-08-26T16:47:44.858Z,100311.98
2017-08-26T16:50:13.925Z,100304.09
2017-08-26T16:52:43.023Z,100313.08
2017-08-26T16:55:12.163Z,100309.93
2017-08-26T16:57:41.319Z,100307.91
2017-08-26T17:00:10.461Z,100313.50
2017-08-26T17:02:39.632Z,100319.39
2017-08-26T17:05:08.760Z,100317.89
2017-08-26T17:07:37.853Z,100316.44
2017-08-26T17:10:06.938Z,100321.89
2017-08-26T17:12:36.015Z,100322.20
2017-08-26T17:15:05.161Z,100321.31
2017-08-26T17:17:34.226Z,100319.42
2017-08-26T17:20:03.300Z,100327.17
2017-08-26T17:22:33.140Z,100325.13
2017-08-26T17:25:02.205Z,100324.84
2017-08-26T17:27:31.317Z,100325.17
2017-08-26T17:30:01.226Z,100328.74
2017-08-26T17:32:30.289Z,100321.06
2017-08-26T17:34:59.386Z,100326.17
2017-08-26T17:37:28.431Z,100327.87
2017-08-26T17:39:57.552Z,100324.58
2017-08-26T17:42:26.635Z,100330.88
2017-08-26T17:44:55.720Z,100330.46
2017-08-26T17:47:24.776Z,100333.84
2017-08-26T17:49:53.877Z,100332.45
2017-08-26T17:52:22.966Z,100338.25
2017-08-26T17:54:52.052Z,100338.47
2017-08-26T17:57:21.112Z,100333.11
2017-08-26T17:59:50.183Z,100335.58
2017-08-26T18:02:19.258Z,100344.70
2017-08-26T18:04:48.322Z,100340.20
2017-08-26T18:07:18.147Z,100347.80
2017-08-26T18:09:47.259Z,100343.16
2017-08-26T18:12:16.455Z,100345.34
2017-08-26T18:14:46.370Z,100350.35
2017-08-26T18:17:15.385Z,100350.74
2017-08-26T18:19:44.464Z,100348.98
2017-08-26T18:22:14.282Z,100350.81
2017-08-26T18:24:43.364Z,100354.61
2017-08-26T18:27:13.188Z,100355.86
2017-08-26T18:29:42.242Z,100362.26
2017-08-26T18:32:11.331Z,100364.12
2017-08-26T18:34:40.375Z,100364.94
2017-08-26T18:37:10.356Z,100361.27
2017-08-26T18:39:39.413Z,100374.20
2017-08-26T18:42:08.591Z,100370.52
2017-08-26T18:44:37.631Z,100371.95
2017-08-26T18:47:06.735Z,100373.42
2017-08-26T18:49:35.809Z,100379.02
2017-08-26T18:52:04.890Z,100380.02
2017-08-26T18:54:34.011Z,100379.28
2017-08-26T18:57:03.064Z,100386.63
2017-08-26T18:59:32.192Z,100390.25
2017-08-26T19:02:01.281Z,100393.44
2017-08-26T19:04:30.367Z,100395.45
2017-08-26T19:06:59.449Z,100390.14
2017-08-26T19:09:28.538Z,100388.53
2017-08-26T19:11:58.414Z,100389.94
2017-08-26T19:14:27.664Z,100393.31
2017-08-26T19:16:56.846Z,100396.69
2017-08-26T19:19:25.921Z,100393.91
2017-08-26T19:21:54.999Z,100398.05
2017-08-26T19:24:24.077Z,100400.45
2017-08-26T19:26:53.126Z,100404.20
2017-08-26T19:29:22.985Z,100402.02
2017-08-26T19:31:52.044Z,100406.77
2017-08-26T19:34:21.299Z,100415.25
2017-08-26T19:36:50.431Z,100411.08
2017-08-26T19:39:19.531Z,100411.26
2017-08-26T19:41:49.361Z,100416.34
2017-08-26T19:44:18.628Z,100417.94
2017-08-26T19:46:48.612Z,100416.56
2017-08-26T19:49:17.707Z,100420.91
2017-08-26T19:51:46.800Z,100416.56
2017-08-26T19:54:15.899Z,100415.94
2017-08-26T19:56:45.000Z,100419.87
2017-08-26T19:59:14.111Z,100423.60
2017-08-26T20:01:43.946Z,100418.67
2017-08-26T20:04:13.275Z,100415.09
2017-08-26T20:06:42.430Z,100420.20
2017-08-26T20:09:11.545Z,100419.58
2017-08-26T20:11:40.628Z,100425.27
2017-08-26T20:14:09.682Z,100419.16
2017-08-26T20:16:39.682Z,100425.44
2017-08-26T20:19:08.846Z,100428.37
2017-08-26T20:21:37.916Z,100424.42
2017-08-26T20:24:07.057Z,100417.70
2017-08-26T20:26:36.109Z,100424.15
2017-08-26T20:29:05.193Z,100425.30
2017-08-26T20:31:35.323Z,100434.14
2017-08-26T20:34:04.396Z,100431.97
2017-08-26T20:36:33.480Z,100433.51
2017-08-26T20:39:02.544Z,100430.90
2017-08-26T20:41:31.776Z,100431.09
2017-08-26T20:44:01.012Z,100428.23
2017-08-26T20:46:30.872Z,100430.99
2017-08-26T20:48:59.939Z,100429.80
2017-08-26T20:51:29.116Z,100425.66
2017-08-26T20:53:58.213Z,100433.27
2017-08-26T20:56:28.052Z,100434.84
2017-08-26T20:58:57.138Z,100432.27
2017-08-26T21:01:26.217Z,100433.39
2017-08-26T21:03:55.303Z,100440.44
2017-08-26T21:06:24.412Z,100437.82
2017-08-26T21:08:53.449Z,100436.82
2017-08-26T21:11:22.531Z,100442.34
2017-08-26T21:13:51.627Z,100443.42
2017-08-26T21:16:20.710Z,100442.59
2017-08-26T21:18:49.796Z,100441.20
2017-08-26T21:21:18.860Z,100445.73
2017-08-26T21:23:47.974Z,100445.47
2017-08-26T21:26:17.268Z,100451.17
2017-08-26T21:28:46.372Z,100449.39
2017-08-26T21:31:15.444Z,100444.81
2017-08-26T21:33:44.494Z,100447.55
2017-08-26T21:36:13.588Z,100446.78
2017-08-26T21:38:42.655Z,100446.19
2017-08-26T21:41:11.742Z,100443.42
2017-08-26T21:43:40.791Z,100446.12
2017-08-26T21:46:09.863Z,100440.55
2017-08-26T21:48:38.942Z,100442.11
2017-08-26T21:51:08.760Z,100440.08
2017-08-26T21:53:37.863Z,100439.26
2017-08-26T21:56:07.840Z,100448.52
2017-08-26T21:58:36.900Z,100450.45
2017-08-26T22:01:06.118Z,100446.07
2017-08-26T22:03:35.194Z,100439.72
2017-08-26T22:06:04.255Z,100447.05
2017-08-26T22:08:34.094Z,100445.43
2017-08-26T22:11:03.151Z,100443.80
2017-08-26T22:13:33.227Z,100453.05
2017-08-26T22:16:02.403Z,100456.05
2017-08-26T22:18:31.465Z,100451.46
2017-08-26T22:21:00.559Z,100454.97
2017-08-26T22:23:29.612Z,100457.87
2017-08-26T22:25:58.705Z,100448.14
2017-08-26T22:28:27.799Z,100458.73
2017-08-26T22:30:57.120Z,100463.87
2017-08-26T22:33:26.225Z,100451.50
2017-08-26T22:35:56.061Z,100453.65
2017-08-26T22:38:25.912Z,100455.54
2017-08-26T22:40:55.083Z,100461.90
2017-08-26T22:43:24.163Z,100463.47
2017-08-26T22:45:53.215Z,100454.44
2017-08-26T22:48:22.282Z,100460.98
2017-08-26T22:50:51.335Z,100458.97
2017-08-26T22:53:20.427Z,100462.35
2017-08-26T22:55:49.486Z,100455.62
2017-08-26T22:58:18.577Z,100453.69
2017-08-26T23:00:47.631Z,100463.73
2017-08-26T23:03:16.704Z,100463.35
2017-08-26T23:05:45.806Z,100462.61
2017-08-26T23:08:14.958Z,100460.25
2017-08-26T23:10:44.019Z,100456.66
2017-08-26T23:13:13.075Z,100453.84
2017-08-26T23:15:42.412Z,100450.84
2017-08-26T23:18:11.513Z,100450.22
2017-08-26T23:20:40.583Z,100455.70
2017-08-26T23:23:09.666Z,100455.33
2017-08-26T23:25:38.709Z,100454.16
2017-08-26T23:28:08.196Z,100454.74
2017-08-26T23:30:37.253Z,100458.88
2017-08-26T23:33:06.351Z,100458.67
2017-08-26T23:35:35.437Z,100461.23
2017-08-26T23:38:04.491Z,100457.30
2017-08-26T23:40:33.571Z,100453.16
2017-08-26T23:43:02.645Z,100451.64
2017-08-26T23:45:31.695Z,100453.02
2017-08-26T23:48:00.797Z,100457.37
2017-08-26T23:50:29.847Z,100461.11
2017-08-26T23:52:58.925Z,100455.77
2017-08-26T23:55:27.979Z,100452.37
2017-08-26T23:57:57.067Z,100455.91
